createdAt,value
2022-12-16T00:00:26.502Z,95055.59
2022-12-16T00:02:55.229Z,95064.94
2022-12-16T00:05:23.365Z,95052.25
2022-12-16T00:07:51.388Z,95054.00
2022-12-16T00:10:20.221Z,95056.22
2022-12-16T00:12:48.633Z,95058.97
2022-12-16T00:15:17.016Z,95053.03
2022-12-16T00:17:45.187Z,95061.84
2022-12-16T00:20:13.359Z,95060.56
2022-12-16T00:22:41.645Z,95063.81
2022-12-16T00:25:10.063Z,95056.69
2022-12-16T00:27:38.186Z,95057.41
2022-12-16T00:30:07.139Z,95053.91
2022-12-16T00:32:35.439Z,95054.59
2022-12-16T00:35:03.833Z,95058.31
2022-12-16T00:37:32.162Z,95058.69
2022-12-16T00:40:00.625Z,95067.47
2022-12-16T00:42:28.808Z,95061.25
2022-12-16T00:44:57.120Z,95064.38
2022-12-16T00:47:26.120Z,95073.16
2022-12-16T00:49:54.255Z,95060.94
2022-12-16T00:52:24.289Z,95066.53
2022-12-16T00:54:52.483Z,95063.06
2022-12-16T00:57:21.456Z,95061.56
2022-12-16T00:59:52.449Z,95059.09
2022-12-16T01:02:20.558Z,95066.00
2022-12-16T01:04:48.814Z,95059.50
2022-12-16T01:07:16.750Z,95061.22
2022-12-16T01:09:44.334Z,95062.78
2022-12-16T01:12:12.182Z,95064.97
2022-12-16T01:14:40.167Z,95061.34
2022-12-16T01:17:07.921Z,95071.34
2022-12-16T01:19:35.901Z,95070.31
2022-12-16T01:22:04.534Z,95064.25
2022-12-16T01:24:32.645Z,95071.97
2022-12-16T01:27:00.439Z,95066.34
2022-12-16T01:29:28.317Z,95070.91
2022-12-16T01:31:56.307Z,95074.38
2022-12-16T01:34:25.085Z,95071.25
2022-12-16T01:36:52.829Z,95057.72
2022-12-16T01:39:20.783Z,95052.06
2022-12-16T01:41:48.823Z,95057.75
2022-12-16T01:44:22.429Z,95061.34
2022-12-16T01:46:54.061Z,95047.47
2022-12-16T01:49:38.113Z,95044.69
2022-12-16T01:52:11.139Z,95041.06
2022-12-16T01:54:44.487Z,95037.44
2022-12-16T01:57:16.231Z,95038.84
2022-12-16T01:59:47.350Z,95029.94
2022-12-16T02:02:15.391Z,95028.09
2022-12-16T02:05:03.545Z,95034.00
2022-12-16T02:07:31.489Z,95032.28
2022-12-16T02:10:00.235Z,95025.09
2022-12-16T02:12:36.876Z,95024.53
2022-12-16T02:15:25.759Z,95028.59
2022-12-16T02:18:15.005Z,95028.38
2022-12-16T02:20:42.544Z,95024.97
2022-12-16T02:23:28.520Z,95038.00
2022-12-16T02:26:35.377Z,95031.22
2022-12-16T02:29:40.193Z,95029.22
2022-12-16T02:32:38.725Z,95032.97
2022-12-16T02:35:19.466Z,95042.31
2022-12-16T02:38:12.096Z,95037.84
2022-12-16T02:40:45.339Z,95028.09
2022-12-16T02:43:29.010Z,95026.44
2022-12-16T02:45:56.647Z,95032.16
2022-12-16T02:48:24.268Z,95020.03
2022-12-16T02:50:52.890Z,95018.25
2022-12-16T02:53:21.647Z,95024.72
2022-12-16T02:56:11.933Z,95027.28
2022-12-16T02:58:54.795Z,95022.59
2022-12-16T03:01:45.057Z,95018.25
2022-12-16T03:04:20.941Z,95033.41
2022-12-16T03:06:51.612Z,95035.75
2022-12-16T03:09:24.566Z,95030.03
2022-12-16T03:11:55.361Z,95024.81
2022-12-16T03:14:27.421Z,95021.56
2022-12-16T03:16:56.777Z,95027.75
2022-12-16T03:19:26.664Z,95033.72
2022-12-16T03:22:06.473Z,95033.75
2022-12-16T03:24:34.990Z,95037.59
2022-12-16T03:27:43.126Z,95035.81
2022-12-16T03:30:18.015Z,95035.06
2022-12-16T03:32:51.567Z,95036.94
2022-12-16T03:35:44.686Z,95035.22
2022-12-16T03:38:14.502Z,95034.97
2022-12-16T03:40:44.722Z,95043.22
2022-12-16T03:43:17.210Z,95036.47
2022-12-16T03:45:49.081Z,95031.56
2022-12-16T03:48:19.096Z,95050.03
2022-12-16T03:50:46.673Z,95046.63
2022-12-16T03:53:14.298Z,95048.81
2022-12-16T03:55:41.982Z,95051.28
2022-12-16T03:58:09.543Z,95064.34
2022-12-16T04:00:37.127Z,95060.97
2022-12-16T04:03:04.872Z,95071.13
2022-12-16T04:05:33.031Z,95072.66
2022-12-16T04:08:02.294Z,95065.44
2022-12-16T04:10:49.265Z,95067.78
2022-12-16T04:13:35.677Z,95069.63
2022-12-16T04:16:22.389Z,95068.84
2022-12-16T04:19:08.958Z,95081.44
2022-12-16T04:21:55.569Z,95090.50
2022-12-16T04:24:27.684Z,95088.53
2022-12-16T04:27:15.964Z,95095.63
2022-12-16T04:30:02.620Z,95088.28
2022-12-16T04:32:51.628Z,95085.50
2022-12-16T04:35:42.141Z,95087.38
2022-12-16T04:38:41.778Z,95084.69
2022-12-16T04:41:27.847Z,95098.56
2022-12-16T04:44:14.622Z,95100.63
2022-12-16T04:47:00.769Z,95102.97
2022-12-16T04:49:46.877Z,95093.88
2022-12-16T04:52:33.562Z,95091.91
2022-12-16T04:55:19.684Z,95091.69
2022-12-16T04:58:14.239Z,95096.47
2022-12-16T05:01:00.787Z,95093.88
2022-12-16T05:03:47.587Z,95091.09
2022-12-16T05:06:34.215Z,95094.72
2022-12-16T05:09:20.407Z,95094.09
2022-12-16T05:12:07.172Z,95100.84
2022-12-16T05:14:53.479Z,95092.34
2022-12-16T05:17:40.138Z,95109.69
2022-12-16T05:20:26.816Z,95114.56
2022-12-16T05:23:15.565Z,95120.03
2022-12-16T05:26:01.621Z,95115.88
2022-12-16T05:28:47.672Z,95121.13
2022-12-16T05:31:33.950Z,95121.91
2022-12-16T05:34:20.064Z,95119.72
2022-12-16T05:37:06.297Z,95126.59
2022-12-16T05:39:52.430Z,95129.22
2022-12-16T05:42:38.421Z,95132.53
2022-12-16T05:45:24.930Z,95140.28
2022-12-16T05:48:11.003Z,95137.53
2022-12-16T05:50:57.245Z,95149.41
2022-12-16T05:53:43.537Z,95137.56
2022-12-16T05:56:40.346Z,95143.03
2022-12-16T05:59:26.764Z,95156.06
2022-12-16T06:02:13.063Z,95148.59
2022-12-16T06:04:59.241Z,95149.31
2022-12-16T06:07:45.650Z,95156.25
2022-12-16T06:10:31.683Z,95158.66
2022-12-16T06:13:17.959Z,95160.81
2022-12-16T06:16:08.680Z,95164.81
2022-12-16T06:18:55.759Z,95167.81
2022-12-16T06:21:41.897Z,95174.38
2022-12-16T06:24:28.106Z,95186.50
2022-12-16T06:27:34.037Z,95184.34
2022-12-16T06:30:20.250Z,95187.00
2022-12-16T06:33:06.503Z,95195.75
2022-12-16T06:35:52.577Z,95194.91
2022-12-16T06:38:38.804Z,95198.19
2022-12-16T06:41:24.921Z,95202.69
2022-12-16T06:44:11.197Z,95208.00
2022-12-16T06:46:57.726Z,95213.56
2022-12-16T06:49:43.966Z,95215.19
2022-12-16T06:52:29.968Z,95208.22
2022-12-16T06:55:16.238Z,95216.00
2022-12-16T06:58:05.414Z,95221.22
2022-12-16T07:00:55.776Z,95225.19
2022-12-16T07:03:42.299Z,95234.16
2022-12-16T07:06:29.052Z,95234.38
2022-12-16T07:09:15.398Z,95242.13
2022-12-16T07:12:01.527Z,95253.06
2022-12-16T07:14:47.706Z,95256.06
2022-12-16T07:17:33.821Z,95268.44
2022-12-16T07:20:36.926Z,95275.09
2022-12-16T07:23:23.202Z,95273.44
2022-12-16T07:26:09.299Z,95285.00
2022-12-16T07:28:57.347Z,95285.09
2022-12-16T07:31:49.246Z,95284.69
2022-12-16T07:34:40.330Z,95290.22
2022-12-16T07:37:27.596Z,95287.53
2022-12-16T07:40:13.672Z,95296.53
2022-12-16T07:43:00.953Z,95296.72
2022-12-16T07:45:47.165Z,95291.50
2022-12-16T07:48:33.281Z,95297.28
2022-12-16T07:51:19.506Z,95310.84
2022-12-16T07:54:05.826Z,95308.75
2022-12-16T07:56:52.089Z,95300.00
2022-12-16T07:59:38.222Z,95299.97
2022-12-16T08:02:24.625Z,95294.44
2022-12-16T08:08:40.650Z,95315.41
2022-12-16T08:11:26.638Z,95320.81
2022-12-16T08:14:12.861Z,95321.34
2022-12-16T08:16:59.149Z,95325.31
2022-12-16T08:19:45.154Z,95328.00
2022-12-16T08:22:31.278Z,95338.22
2022-12-16T08:28:28.972Z,95345.63
2022-12-16T08:31:15.521Z,95351.50
2022-12-16T08:34:01.489Z,95345.69
2022-12-16T08:36:47.623Z,95359.91
2022-12-16T08:39:33.965Z,95363.69
2022-12-16T08:42:20.208Z,95357.06
2022-12-16T08:45:06.561Z,95359.41
2022-12-16T08:47:52.636Z,95368.81
2022-12-16T08:50:38.984Z,95369.03
2022-12-16T08:53:25.274Z,95375.41
2022-12-16T08:56:11.412Z,95378.47
2022-12-16T08:58:57.604Z,95379.31
2022-12-16T09:01:43.954Z,95382.03
2022-12-16T14:56:34.678Z,95749.38
2022-12-16T14:59:30.312Z,95748.31
2022-12-16T15:02:19.128Z,95753.34
2022-12-16T15:05:05.865Z,95754.16
2022-12-16T15:07:55.929Z,95759.41
2022-12-16T15:10:46.534Z,95758.28
2022-12-16T15:13:36.705Z,95768.25
2022-12-16T15:16:24.423Z,95769.25
2022-12-16T15:19:28.692Z,95771.13
2022-12-16T15:22:19.779Z,95779.19
2022-12-16T15:25:06.446Z,95775.72
2022-12-16T15:27:55.589Z,95776.97
2022-12-16T15:30:55.166Z,95777.63
2022-12-16T15:33:46.736Z,95785.69
2022-12-16T15:36:55.298Z,95783.78
2022-12-16T15:39:56.133Z,95786.22
2022-12-16T15:42:47.872Z,95795.47
2022-12-16T15:45:42.885Z,95799.84
2022-12-16T15:48:36.403Z,95797.53
2022-12-16T15:51:22.629Z,95807.31
2022-12-16T15:54:22.494Z,95812.16
2022-12-16T15:57:09.206Z,95817.22
2022-12-16T16:00:11.470Z,95818.41
2022-12-16T16:03:05.239Z,95819.75
2022-12-16T16:06:02.410Z,95831.09
2022-12-16T16:08:48.750Z,95833.72
2022-12-16T16:11:34.991Z,95832.91
2022-12-16T16:14:21.174Z,95827.81
2022-12-16T16:17:07.426Z,95842.72
2022-12-16T16:19:53.742Z,95834.16
2022-12-16T16:22:41.669Z,95842.63
2022-12-16T16:25:30.270Z,95851.13
2022-12-16T16:28:16.522Z,95856.09
2022-12-16T16:31:02.863Z,95859.75
2022-12-16T16:33:48.882Z,95856.16
2022-12-16T16:36:35.687Z,95857.53
2022-12-16T16:39:21.852Z,95868.78
2022-12-16T16:42:07.936Z,95865.97
2022-12-16T16:44:54.216Z,95873.19
2022-12-16T16:47:40.442Z,95879.47
2022-12-16T16:50:32.567Z,95883.47
2022-12-16T16:53:18.739Z,95884.94
2022-12-16T16:56:20.312Z,95887.78
2022-12-16T16:59:07.005Z,95897.06
2022-12-16T17:01:53.261Z,95890.31
2022-12-16T17:04:46.727Z,95890.19
2022-12-16T17:07:33.257Z,95894.00
2022-12-16T17:10:19.413Z,95906.59
2022-12-16T17:13:05.655Z,95905.63
2022-12-16T17:15:55.541Z,95910.38
2022-12-16T17:18:46.732Z,95911.72
2022-12-16T17:21:35.599Z,95914.63
2022-12-16T17:24:22.054Z,95912.16
2022-12-16T17:28:20.652Z,95919.50
